sensor_id;sensor_type;location;lat;lon;timestamp;P1;durP1;ratioP1;P2;durP2;ratioP2
14066;SDS011;7108;42.684;23.350;2022-08-04T00:02:02;235.23;;;130.87;;
14066;SDS011;7108;42.684;23.350;2022-08-04T00:07:18;219.03;;;122.70;;
14066;SDS011;7108;42.684;23.350;2022-08-04T00:09:56;229.03;;;125.83;;
14066;SDS011;7108;42.684;23.350;2022-08-04T00:12:24;245.77;;;129.27;;
14066;SDS011;7108;42.684;23.350;2022-08-04T00:14:54;238.30;;;132.07;;
14066;SDS011;7108;42.684;23.350;2022-08-04T00:17:24;236.63;;;128.33;;
14066;SDS011;7108;42.684;23.350;2022-08-04T00:19:55;227.33;;;129.10;;
14066;SDS011;7108;42.684;23.350;2022-08-04T00:22:26;233.47;;;129.93;;
14066;SDS011;7108;42.684;23.350;2022-08-04T00:24:54;240.60;;;130.17;;
14066;SDS011;7108;42.684;23.350;2022-08-04T00:27:20;222.87;;;125.97;;
14066;SDS011;7108;42.684;23.350;2022-08-04T00:29:46;225.00;;;129.63;;
14066;SDS011;7108;42.684;23.350;2022-08-04T00:32:12;225.73;;;130.13;;
14066;SDS011;7108;42.684;23.350;2022-08-04T00:34:38;229.27;;;125.70;;
14066;SDS011;7108;42.684;23.350;2022-08-04T00:37:04;241.90;;;128.30;;
14066;SDS011;7108;42.684;23.350;2022-08-04T00:39:30;244.57;;;129.67;;
14066;SDS011;7108;42.684;23.350;2022-08-04T00:47:38;233.87;;;126.60;;
14066;SDS011;7108;42.684;23.350;2022-08-04T00:53:21;240.27;;;128.90;;
14066;SDS011;7108;42.684;23.350;2022-08-04T00:56:12;240.70;;;127.57;;
14066;SDS011;7108;42.684;23.350;2022-08-04T01:04:03;240.13;;;129.03;;
14066;SDS011;7108;42.684;23.350;2022-08-04T01:06:44;223.90;;;125.40;;
14066;SDS011;7108;42.684;23.350;2022-08-04T01:15:03;241.80;;;130.80;;
14066;SDS011;7108;42.684;23.350;2022-08-04T01:30:15;227.27;;;128.73;;
14066;SDS011;7108;42.684;23.350;2022-08-04T01:33:14;217.33;;;124.03;;
14066;SDS011;7108;42.684;23.350;2022-08-04T01:35:53;235.07;;;131.27;;
14066;SDS011;7108;42.684;23.350;2022-08-04T01:38:23;229.33;;;128.17;;
14066;SDS011;7108;42.684;23.350;2022-08-04T01:40:53;228.63;;;123.00;;
14066;SDS011;7108;42.684;23.350;2022-08-04T01:43:26;233.73;;;124.47;;
14066;SDS011;7108;42.684;23.350;2022-08-04T01:45:58;256.23;;;126.23;;
14066;SDS011;7108;42.684;23.350;2022-08-04T01:48:25;230.17;;;125.43;;
14066;SDS011;7108;42.684;23.350;2022-08-04T01:50:53;229.10;;;128.40;;
14066;SDS011;7108;42.684;23.350;2022-08-04T01:53:22;221.10;;;127.70;;
14066;SDS011;7108;42.684;23.350;2022-08-04T01:55:53;229.97;;;125.47;;
14066;SDS011;7108;42.684;23.350;2022-08-04T01:58:24;250.50;;;130.30;;
14066;SDS011;7108;42.684;23.350;2022-08-04T02:01:27;234.73;;;130.03;;
14066;SDS011;7108;42.684;23.350;2022-08-04T02:03:45;218.53;;;126.87;;
14066;SDS011;7108;42.684;23.350;2022-08-04T02:11:39;238.37;;;130.17;;
14066;SDS011;7108;42.684;23.350;2022-08-04T02:14:09;233.33;;;126.23;;
14066;SDS011;7108;42.684;23.350;2022-08-04T02:17:25;232.63;;;127.20;;
14066;SDS011;7108;42.684;23.350;2022-08-04T02:22:33;235.70;;;125.30;;
14066;SDS011;7108;42.684;23.350;2022-08-04T02:25:04;240.40;;;125.67;;
14066;SDS011;7108;42.684;23.350;2022-08-04T02:27:39;233.03;;;123.10;;
14066;SDS011;7108;42.684;23.350;2022-08-04T02:30:12;217.77;;;121.20;;
14066;SDS011;7108;42.684;23.350;2022-08-04T02:32:38;234.00;;;125.07;;
14066;SDS011;7108;42.684;23.350;2022-08-04T02:35:06;230.07;;;124.50;;
14066;SDS011;7108;42.684;23.350;2022-08-04T02:37:33;233.23;;;126.40;;
14066;SDS011;7108;42.684;23.350;2022-08-04T02:40:00;236.00;;;124.33;;
14066;SDS011;7108;42.684;23.350;2022-08-04T02:42:27;234.80;;;123.93;;
14066;SDS011;7108;42.684;23.350;2022-08-04T02:44:56;228.27;;;122.63;;
14066;SDS011;7108;42.684;23.350;2022-08-04T02:47:23;215.67;;;120.20;;
14066;SDS011;7108;42.684;23.350;2022-08-04T02:49:50;223.80;;;122.23;;
14066;SDS011;7108;42.684;23.350;2022-08-04T02:52:19;223.93;;;122.93;;
14066;SDS011;7108;42.684;23.350;2022-08-04T02:54:50;233.93;;;124.80;;
14066;SDS011;7108;42.684;23.350;2022-08-04T02:57:17;222.67;;;124.70;;
14066;SDS011;7108;42.684;23.350;2022-08-04T03:02:41;229.23;;;122.93;;
14066;SDS011;7108;42.684;23.350;2022-08-04T03:05:19;222.30;;;121.37;;
14066;SDS011;7108;42.684;23.350;2022-08-04T03:13:26;232.23;;;122.90;;
14066;SDS011;7108;42.684;23.350;2022-08-04T03:16:23;218.60;;;120.40;;
14066;SDS011;7108;42.684;23.350;2022-08-04T03:30:10;225.20;;;123.63;;
14066;SDS011;7108;42.684;23.350;2022-08-04T03:55:40;238.43;;;125.93;;
14066;SDS011;7108;42.684;23.350;2022-08-04T04:20:20;233.67;;;124.00;;
14066;SDS011;7108;42.684;23.350;2022-08-04T04:32:17;243.83;;;129.37;;
14066;SDS011;7108;42.684;23.350;2022-08-04T04:51:12;255.77;;;130.10;;
14066;SDS011;7108;42.684;23.350;2022-08-04T04:54:03;224.43;;;126.63;;
14066;SDS011;7108;42.684;23.350;2022-08-04T04:56:46;220.93;;;124.63;;
14066;SDS011;7108;42.684;23.350;2022-08-04T04:59:21;228.00;;;127.17;;
14066;SDS011;7108;42.684;23.350;2022-08-04T05:04:53;241.07;;;126.17;;
14066;SDS011;7108;42.684;23.350;2022-08-04T05:10:57;224.17;;;123.97;;
14066;SDS011;7108;42.684;23.350;2022-08-04T05:16:16;239.37;;;129.60;;
14066;SDS011;7108;42.684;23.350;2022-08-04T05:18:46;225.23;;;125.13;;
14066;SDS011;7108;42.684;23.350;2022-08-04T05:23:48;229.63;;;126.03;;
14066;SDS011;7108;42.684;23.350;2022-08-04T05:26:18;221.37;;;120.53;;
14066;SDS011;7108;42.684;23.350;2022-08-04T05:28:56;224.37;;;123.93;;
14066;SDS011;7108;42.684;23.350;2022-08-04T05:31:33;231.40;;;120.90;;
14066;SDS011;7108;42.684;23.350;2022-08-04T05:34:07;229.77;;;122.30;;
14066;SDS011;7108;42.684;23.350;2022-08-04T05:36:38;236.30;;;123.10;;
14066;SDS011;7108;42.684;23.350;2022-08-04T05:39:10;241.23;;;122.10;;
14066;SDS011;7108;42.684;23.350;2022-08-04T05:41:39;239.23;;;123.80;;
14066;SDS011;7108;42.684;23.350;2022-08-04T05:44:07;245.03;;;126.30;;
14066;SDS011;7108;42.684;23.350;2022-08-04T05:46:34;236.23;;;118.77;;
14066;SDS011;7108;42.684;23.350;2022-08-04T05:48:59;233.97;;;120.83;;
14066;SDS011;7108;42.684;23.350;2022-08-04T05:51:27;243.97;;;122.07;;
14066;SDS011;7108;42.684;23.350;2022-08-04T05:53:55;234.57;;;125.63;;
14066;SDS011;7108;42.684;23.350;2022-08-04T05:56:22;230.67;;;121.63;;
14066;SDS011;7108;42.684;23.350;2022-08-04T05:58:48;232.67;;;119.37;;
14066;SDS011;7108;42.684;23.350;2022-08-04T06:01:17;274.60;;;125.50;;
14066;SDS011;7108;42.684;23.350;2022-08-04T06:03:43;267.77;;;122.23;;
14066;SDS011;7108;42.684;23.350;2022-08-04T06:06:11;257.37;;;116.67;;
14066;SDS011;7108;42.684;23.350;2022-08-04T06:08:39;288.30;;;131.43;;
14066;SDS011;7108;42.684;23.350;2022-08-04T06:11:05;281.13;;;128.77;;
14066;SDS011;7108;42.684;23.350;2022-08-04T06:13:39;429.40;;;158.43;;
14066;SDS011;7108;42.684;23.350;2022-08-04T06:16:08;277.47;;;126.97;;
14066;SDS011;7108;42.684;23.350;2022-08-04T06:18:37;230.83;;;121.23;;
14066;SDS011;7108;42.684;23.350;2022-08-04T06:21:05;243.77;;;123.50;;
14066;SDS011;7108;42.684;23.350;2022-08-04T06:23:32;260.17;;;129.77;;
14066;SDS011;7108;42.684;23.350;2022-08-04T06:26:01;245.70;;;125.23;;
14066;SDS011;7108;42.684;23.350;2022-08-04T06:28:29;257.00;;;126.50;;
14066;SDS011;7108;42.684;23.350;2022-08-04T06:30:55;234.07;;;121.00;;
14066;SDS011;7108;42.684;23.350;2022-08-04T06:33:28;227.57;;;119.07;;
14066;SDS011;7108;42.684;23.350;2022-08-04T06:35:58;247.70;;;123.60;;
14066;SDS011;7108;42.684;23.350;2022-08-04T06:38:26;236.33;;;117.63;;
14066;SDS011;7108;42.684;23.350;2022-08-04T06:40:53;227.87;;;117.80;;
14066;SDS011;7108;42.684;23.350;2022-08-04T06:43:22;230.20;;;116.90;;
14066;SDS011;7108;42.684;23.350;2022-08-04T06:45:48;221.27;;;113.70;;
14066;SDS011;7108;42.684;23.350;2022-08-04T06:48:15;223.07;;;111.97;;
14066;SDS011;7108;42.684;23.350;2022-08-04T06:50:42;228.97;;;114.27;;
14066;SDS011;7108;42.684;23.350;2022-08-04T06:53:12;247.57;;;125.53;;
14066;SDS011;7108;42.684;23.350;2022-08-04T06:55:38;242.40;;;121.07;;
14066;SDS011;7108;42.684;23.350;2022-08-04T06:58:06;240.33;;;119.80;;
14066;SDS011;7108;42.684;23.350;2022-08-04T07:00:33;244.57;;;127.40;;
14066;SDS011;7108;42.684;23.350;2022-08-04T07:03:00;242.87;;;126.97;;
14066;SDS011;7108;42.684;23.350;2022-08-04T07:05:27;229.27;;;119.03;;
14066;SDS011;7108;42.684;23.350;2022-08-04T07:07:53;225.07;;;117.27;;
14066;SDS011;7108;42.684;23.350;2022-08-04T07:10:20;228.73;;;115.90;;
14066;SDS011;7108;42.684;23.350;2022-08-04T07:12:47;228.70;;;120.00;;
14066;SDS011;7108;42.684;23.350;2022-08-04T07:15:14;238.47;;;121.97;;
14066;SDS011;7108;42.684;23.350;2022-08-04T07:17:42;228.33;;;120.47;;
14066;SDS011;7108;42.684;23.350;2022-08-04T07:20:10;244.67;;;121.60;;
14066;SDS011;7108;42.684;23.350;2022-08-04T07:22:36;251.70;;;122.03;;
14066;SDS011;7108;42.684;23.350;2022-08-04T07:25:07;243.60;;;120.67;;
14066;SDS011;7108;42.684;23.350;2022-08-04T07:27:34;248.73;;;119.33;;
14066;SDS011;7108;42.684;23.350;2022-08-04T07:30:00;260.33;;;128.07;;
14066;SDS011;7108;42.684;23.350;2022-08-04T07:32:29;247.07;;;116.47;;
14066;SDS011;7108;42.684;23.350;2022-08-04T07:34:56;226.83;;;112.10;;
14066;SDS011;7108;42.684;23.350;2022-08-04T07:37:23;235.63;;;115.10;;
14066;SDS011;7108;42.684;23.350;2022-08-04T07:39:48;234.87;;;115.10;;
14066;SDS011;7108;42.684;23.350;2022-08-04T07:42:16;251.53;;;121.33;;
14066;SDS011;7108;42.684;23.350;2022-08-04T07:44:43;238.47;;;118.83;;
14066;SDS011;7108;42.684;23.350;2022-08-04T07:47:10;248.20;;;121.63;;
14066;SDS011;7108;42.684;23.350;2022-08-04T07:49:36;248.37;;;124.10;;
14066;SDS011;7108;42.684;23.350;2022-08-04T07:52:02;233.30;;;118.60;;
14066;SDS011;7108;42.684;23.350;2022-08-04T07:54:28;257.47;;;123.27;;
14066;SDS011;7108;42.684;23.350;2022-08-04T07:56:54;243.30;;;117.57;;
14066;SDS011;7108;42.684;23.350;2022-08-04T07:59:21;231.67;;;115.93;;
14066;SDS011;7108;42.684;23.350;2022-08-04T08:01:46;234.60;;;115.67;;
14066;SDS011;7108;42.684;23.350;2022-08-04T08:04:13;239.77;;;122.33;;
14066;SDS011;7108;42.684;23.350;2022-08-04T08:06:40;252.63;;;117.60;;
14066;SDS011;7108;42.684;23.350;2022-08-04T08:09:07;244.73;;;120.10;;
14066;SDS011;7108;42.684;23.350;2022-08-04T08:11:41;242.83;;;119.30;;
14066;SDS011;7108;42.684;23.350;2022-08-04T08:14:08;240.43;;;121.57;;
14066;SDS011;7108;42.684;23.350;2022-08-04T08:16:35;236.77;;;117.43;;
14066;SDS011;7108;42.684;23.350;2022-08-04T08:19:01;239.37;;;127.27;;
14066;SDS011;7108;42.684;23.350;2022-08-04T08:21:28;240.17;;;117.63;;
14066;SDS011;7108;42.684;23.350;2022-08-04T08:23:53;226.73;;;116.30;;
14066;SDS011;7108;42.684;23.350;2022-08-04T08:26:20;230.20;;;119.90;;
14066;SDS011;7108;42.684;23.350;2022-08-04T08:28:45;238.77;;;121.93;;
14066;SDS011;7108;42.684;23.350;2022-08-04T08:31:11;247.43;;;119.90;;
14066;SDS011;7108;42.684;23.350;2022-08-04T08:33:36;237.50;;;120.67;;
14066;SDS011;7108;42.684;23.350;2022-08-04T08:36:05;238.20;;;123.80;;
14066;SDS011;7108;42.684;23.350;2022-08-04T08:38:44;247.03;;;124.77;;
14066;SDS011;7108;42.684;23.350;2022-08-04T08:41:28;227.00;;;122.00;;
14066;SDS011;7108;42.684;23.350;2022-08-04T08:47:03;250.87;;;126.90;;
14066;SDS011;7108;42.684;23.350;2022-08-04T08:55:39;255.17;;;128.03;;
14066;SDS011;7108;42.684;23.350;2022-08-04T09:01:13;249.23;;;131.07;;
14066;SDS011;7108;42.684;23.350;2022-08-04T09:12:38;287.73;;;135.97;;
14066;SDS011;7108;42.684;23.350;2022-08-04T09:15:14;289.77;;;135.13;;
14066;SDS011;7108;42.684;23.350;2022-08-04T09:20:21;274.60;;;135.37;;
14066;SDS011;7108;42.684;23.350;2022-08-04T09:23:06;257.23;;;129.63;;
14066;SDS011;7108;42.684;23.350;2022-08-04T09:25:47;273.93;;;133.67;;
14066;SDS011;7108;42.684;23.350;2022-08-04T09:28:19;284.50;;;134.10;;
14066;SDS011;7108;42.684;23.350;2022-08-04T09:36:31;247.60;;;128.13;;
14066;SDS011;7108;42.684;23.350;2022-08-04T09:46:43;246.10;;;125.93;;
14066;SDS011;7108;42.684;23.350;2022-08-04T09:49:20;229.50;;;124.73;;
14066;SDS011;7108;42.684;23.350;2022-08-04T09:54:38;225.50;;;125.13;;
14066;SDS011;7108;42.684;23.350;2022-08-04T10:00:04;248.33;;;128.20;;
14066;SDS011;7108;42.684;23.350;2022-08-04T10:02:43;240.00;;;133.70;;
14066;SDS011;7108;42.684;23.350;2022-08-04T10:05:13;233.17;;;126.63;;
14066;SDS011;7108;42.684;23.350;2022-08-04T10:19:31;226.40;;;127.77;;
14066;SDS011;7108;42.684;23.350;2022-08-04T10:27:43;237.30;;;128.17;;
14066;SDS011;7108;42.684;23.350;2022-08-04T10:30:12;244.40;;;127.93;;
14066;SDS011;7108;42.684;23.350;2022-08-04T10:35:11;238.97;;;129.00;;
14066;SDS011;7108;42.684;23.350;2022-08-04T10:37:47;236.13;;;129.20;;
14066;SDS011;7108;42.684;23.350;2022-08-04T10:46:10;232.73;;;125.50;;
14066;SDS011;7108;42.684;23.350;2022-08-04T10:48:55;234.47;;;125.93;;
14066;SDS011;7108;42.684;23.350;2022-08-04T10:51:32;224.97;;;125.67;;
14066;SDS011;7108;42.684;23.350;2022-08-04T10:54:51;256.67;;;138.87;;
14066;SDS011;7108;42.684;23.350;2022-08-04T10:57:10;244.67;;;137.43;;
14066;SDS011;7108;42.684;23.350;2022-08-04T10:59:44;252.73;;;134.83;;
14066;SDS011;7108;42.684;23.350;2022-08-04T11:07:10;239.27;;;135.90;;
14066;SDS011;7108;42.684;23.350;2022-08-04T11:09:38;252.50;;;138.97;;
14066;SDS011;7108;42.684;23.350;2022-08-04T11:12:13;238.23;;;136.97;;
14066;SDS011;7108;42.684;23.350;2022-08-04T11:14:49;235.87;;;136.87;;
14066;SDS011;7108;42.684;23.350;2022-08-04T11:17:20;218.03;;;128.30;;
14066;SDS011;7108;42.684;23.350;2022-08-04T11:22:35;237.87;;;132.13;;
14066;SDS011;7108;42.684;23.350;2022-08-04T11:25:28;232.20;;;132.57;;
14066;SDS011;7108;42.684;23.350;2022-08-04T11:28:03;218.30;;;128.67;;
14066;SDS011;7108;42.684;23.350;2022-08-04T11:30:49;232.63;;;133.63;;
14066;SDS011;7108;42.684;23.350;2022-08-04T11:33:30;222.00;;;130.63;;
14066;SDS011;7108;42.684;23.350;2022-08-04T11:39:17;230.87;;;127.13;;
14066;SDS011;7108;42.684;23.350;2022-08-04T11:47:00;220.17;;;129.53;;
14066;SDS011;7108;42.684;23.350;2022-08-04T11:49:33;241.67;;;135.43;;
14066;SDS011;7108;42.684;23.350;2022-08-04T11:52:05;217.33;;;127.97;;
14066;SDS011;7108;42.684;23.350;2022-08-04T11:54:32;237.40;;;135.17;;
14066;SDS011;7108;42.684;23.350;2022-08-04T11:56:58;224.83;;;135.00;;
14066;SDS011;7108;42.684;23.350;2022-08-04T11:59:24;222.73;;;132.17;;
14066;SDS011;7108;42.684;23.350;2022-08-04T12:04:36;229.70;;;132.13;;
14066;SDS011;7108;42.684;23.350;2022-08-04T12:07:22;232.30;;;134.40;;
14066;SDS011;7108;42.684;23.350;2022-08-04T12:10:12;233.60;;;131.53;;
14066;SDS011;7108;42.684;23.350;2022-08-04T12:16:02;222.57;;;133.50;;
14066;SDS011;7108;42.684;23.350;2022-08-04T12:18:44;235.27;;;135.23;;
14066;SDS011;7108;42.684;23.350;2022-08-04T12:21:22;219.60;;;131.70;;
14066;SDS011;7108;42.684;23.350;2022-08-04T12:23:57;229.60;;;130.33;;
14066;SDS011;7108;42.684;23.350;2022-08-04T12:26:43;227.60;;;132.77;;
14066;SDS011;7108;42.684;23.350;2022-08-04T12:29:16;236.63;;;133.27;;
14066;SDS011;7108;42.684;23.350;2022-08-04T12:31:47;234.47;;;131.00;;
14066;SDS011;7108;42.684;23.350;2022-08-04T12:34:22;232.10;;;133.10;;
14066;SDS011;7108;42.684;23.350;2022-08-04T12:36:57;220.13;;;129.40;;
14066;SDS011;7108;42.684;23.350;2022-08-04T12:39:27;218.83;;;129.33;;
14066;SDS011;7108;42.684;23.350;2022-08-04T12:44:35;229.33;;;136.07;;
14066;SDS011;7108;42.684;23.350;2022-08-04T12:47:09;226.37;;;132.77;;
14066;SDS011;7108;42.684;23.350;2022-08-04T12:49:36;238.83;;;134.27;;
14066;SDS011;7108;42.684;23.350;2022-08-04T12:52:06;251.43;;;133.80;;
14066;SDS011;7108;42.684;23.350;2022-08-04T12:54:33;229.20;;;128.70;;
14066;SDS011;7108;42.684;23.350;2022-08-04T12:57:03;236.37;;;134.63;;
14066;SDS011;7108;42.684;23.350;2022-08-04T12:59:40;224.67;;;129.37;;
14066;SDS011;7108;42.684;23.350;2022-08-04T13:02:11;239.20;;;130.13;;
14066;SDS011;7108;42.684;23.350;2022-08-04T13:04:43;230.07;;;130.50;;
14066;SDS011;7108;42.684;23.350;2022-08-04T13:07:12;238.93;;;131.23;;
14066;SDS011;7108;42.684;23.350;2022-08-04T13:09:40;246.13;;;136.13;;
14066;SDS011;7108;42.684;23.350;2022-08-04T13:14:41;235.03;;;129.87;;
14066;SDS011;7108;42.684;23.350;2022-08-04T13:17:09;238.33;;;137.30;;
14066;SDS011;7108;42.684;23.350;2022-08-04T13:19:35;232.70;;;136.07;;
14066;SDS011;7108;42.684;23.350;2022-08-04T13:22:02;220.57;;;128.80;;
14066;SDS011;7108;42.684;23.350;2022-08-04T13:24:29;236.53;;;131.63;;
14066;SDS011;7108;42.684;23.350;2022-08-04T13:27:01;225.17;;;131.17;;
14066;SDS011;7108;42.684;23.350;2022-08-04T13:29:33;231.70;;;129.77;;
14066;SDS011;7108;42.684;23.350;2022-08-04T13:32:01;221.47;;;135.30;;
14066;SDS011;7108;42.684;23.350;2022-08-04T13:34:28;230.30;;;129.93;;
14066;SDS011;7108;42.684;23.350;2022-08-04T13:36:54;224.13;;;133.20;;
14066;SDS011;7108;42.684;23.350;2022-08-04T13:39:21;237.83;;;133.63;;
14066;SDS011;7108;42.684;23.350;2022-08-04T13:41:49;231.57;;;130.93;;
14066;SDS011;7108;42.684;23.350;2022-08-04T13:44:19;234.03;;;134.30;;
14066;SDS011;7108;42.684;23.350;2022-08-04T13:46:49;214.07;;;129.77;;
14066;SDS011;7108;42.684;23.350;2022-08-04T13:49:17;233.00;;;132.93;;
14066;SDS011;7108;42.684;23.350;2022-08-04T13:51:50;220.90;;;132.70;;
14066;SDS011;7108;42.684;23.350;2022-08-04T13:54:19;247.10;;;135.73;;
14066;SDS011;7108;42.684;23.350;2022-08-04T13:56:46;231.57;;;135.83;;
14066;SDS011;7108;42.684;23.350;2022-08-04T13:59:15;237.43;;;131.40;;
14066;SDS011;7108;42.684;23.350;2022-08-04T14:01:44;272.77;;;133.27;;
14066;SDS011;7108;42.684;23.350;2022-08-04T14:04:20;276.97;;;140.50;;
14066;SDS011;7108;42.684;23.350;2022-08-04T14:09:31;281.47;;;136.70;;
14066;SDS011;7108;42.684;23.350;2022-08-04T14:12:08;265.50;;;138.17;;
14066;SDS011;7108;42.684;23.350;2022-08-04T14:14:36;262.50;;;134.63;;
14066;SDS011;7108;42.684;23.350;2022-08-04T14:17:11;261.83;;;137.80;;
14066;SDS011;7108;42.684;23.350;2022-08-04T14:25:04;259.93;;;134.43;;
14066;SDS011;7108;42.684;23.350;2022-08-04T14:27:40;234.23;;;133.03;;
14066;SDS011;7108;42.684;23.350;2022-08-04T14:30:18;244.73;;;137.10;;
14066;SDS011;7108;42.684;23.350;2022-08-04T14:35:31;251.40;;;134.53;;
14066;SDS011;7108;42.684;23.350;2022-08-04T14:37:58;272.17;;;144.20;;
14066;SDS011;7108;42.684;23.350;2022-08-04T14:40:27;272.10;;;139.13;;
14066;SDS011;7108;42.684;23.350;2022-08-04T14:42:54;274.20;;;139.73;;
14066;SDS011;7108;42.684;23.350;2022-08-04T14:45:33;271.67;;;140.07;;
14066;SDS011;7108;42.684;23.350;2022-08-04T14:48:01;239.73;;;135.23;;
14066;SDS011;7108;42.684;23.350;2022-08-04T14:50:35;251.20;;;137.50;;
14066;SDS011;7108;42.684;23.350;2022-08-04T14:53:04;272.67;;;142.93;;
14066;SDS011;7108;42.684;23.350;2022-08-04T14:55:35;240.60;;;138.63;;
14066;SDS011;7108;42.684;23.350;2022-08-04T14:58:02;230.60;;;136.40;;
14066;SDS011;7108;42.684;23.350;2022-08-04T15:00:29;263.53;;;140.70;;
14066;SDS011;7108;42.684;23.350;2022-08-04T15:03:01;251.83;;;136.33;;
14066;SDS011;7108;42.684;23.350;2022-08-04T15:05:32;230.90;;;134.93;;
14066;SDS011;7108;42.684;23.350;2022-08-04T15:07:59;239.53;;;136.30;;
14066;SDS011;7108;42.684;23.350;2022-08-04T15:10:25;247.70;;;133.90;;
14066;SDS011;7108;42.684;23.350;2022-08-04T15:12:51;236.40;;;134.63;;
14066;SDS011;7108;42.684;23.350;2022-08-04T15:15:17;244.97;;;131.50;;
14066;SDS011;7108;42.684;23.350;2022-08-04T15:17:43;225.23;;;129.53;;
14066;SDS011;7108;42.684;23.350;2022-08-04T15:20:09;222.17;;;132.57;;
14066;SDS011;7108;42.684;23.350;2022-08-04T15:22:36;231.83;;;132.20;;
14066;SDS011;7108;42.684;23.350;2022-08-04T15:25:02;218.57;;;132.40;;
14066;SDS011;7108;42.684;23.350;2022-08-04T15:27:30;248.70;;;135.57;;
14066;SDS011;7108;42.684;23.350;2022-08-04T15:30:00;237.33;;;137.73;;
14066;SDS011;7108;42.684;23.350;2022-08-04T15:32:31;231.13;;;135.17;;
14066;SDS011;7108;42.684;23.350;2022-08-04T15:35:03;234.87;;;129.37;;
14066;SDS011;7108;42.684;23.350;2022-08-04T15:40:06;226.20;;;131.03;;
14066;SDS011;7108;42.684;23.350;2022-08-04T15:42:45;232.70;;;132.37;;
14066;SDS011;7108;42.684;23.350;2022-08-04T15:45:20;229.93;;;130.30;;
14066;SDS011;7108;42.684;23.350;2022-08-04T15:50:28;252.43;;;138.90;;
14066;SDS011;7108;42.684;23.350;2022-08-04T15:55:29;244.97;;;133.37;;
14066;SDS011;7108;42.684;23.350;2022-08-04T15:58:13;281.47;;;140.10;;
14066;SDS011;7108;42.684;23.350;2022-08-04T16:08:30;263.47;;;140.10;;
14066;SDS011;7108;42.684;23.350;2022-08-04T16:19:08;278.03;;;141.23;;
14066;SDS011;7108;42.684;23.350;2022-08-04T16:21:47;263.93;;;138.30;;
14066;SDS011;7108;42.684;23.350;2022-08-04T16:24:21;274.33;;;142.20;;
14066;SDS011;7108;42.684;23.350;2022-08-04T16:26:50;254.67;;;135.83;;
14066;SDS011;7108;42.684;23.350;2022-08-04T16:34:29;256.73;;;135.80;;
14066;SDS011;7108;42.684;23.350;2022-08-04T16:36:59;278.23;;;140.03;;
14066;SDS011;7108;42.684;23.350;2022-08-04T16:39:25;278.23;;;140.77;;
14066;SDS011;7108;42.684;23.350;2022-08-04T16:41:51;259.73;;;136.57;;
14066;SDS011;7108;42.684;23.350;2022-08-04T16:44:34;273.07;;;138.10;;
14066;SDS011;7108;42.684;23.350;2022-08-04T16:47:03;260.50;;;132.10;;
14066;SDS011;7108;42.684;23.350;2022-08-04T16:49:31;285.13;;;138.90;;
14066;SDS011;7108;42.684;23.350;2022-08-04T16:52:04;273.87;;;140.47;;
14066;SDS011;7108;42.684;23.350;2022-08-04T16:54:31;281.90;;;142.17;;
14066;SDS011;7108;42.684;23.350;2022-08-04T16:56:59;256.87;;;139.07;;
14066;SDS011;7108;42.684;23.350;2022-08-04T16:59:24;264.77;;;133.67;;
14066;SDS011;7108;42.684;23.350;2022-08-04T17:01:51;262.90;;;135.33;;
14066;SDS011;7108;42.684;23.350;2022-08-04T17:04:31;252.60;;;140.47;;
14066;SDS011;7108;42.684;23.350;2022-08-04T17:07:00;262.17;;;138.13;;
14066;SDS011;7108;42.684;23.350;2022-08-04T17:09:29;291.90;;;137.10;;
14066;SDS011;7108;42.684;23.350;2022-08-04T17:11:56;269.07;;;137.20;;
14066;SDS011;7108;42.684;23.350;2022-08-04T17:14:23;268.93;;;133.30;;
14066;SDS011;7108;42.684;23.350;2022-08-04T17:16:51;245.90;;;131.37;;
14066;SDS011;7108;42.684;23.350;2022-08-04T17:19:18;260.80;;;139.27;;
14066;SDS011;7108;42.684;23.350;2022-08-04T17:21:44;260.27;;;141.47;;
14066;SDS011;7108;42.684;23.350;2022-08-04T17:24:10;268.93;;;137.77;;
14066;SDS011;7108;42.684;23.350;2022-08-04T17:26:37;281.40;;;139.10;;
14066;SDS011;7108;42.684;23.350;2022-08-04T17:29:03;274.03;;;137.47;;
14066;SDS011;7108;42.684;23.350;2022-08-04T17:31:30;257.93;;;134.40;;
14066;SDS011;7108;42.684;23.350;2022-08-04T17:33:58;267.27;;;135.93;;
14066;SDS011;7108;42.684;23.350;2022-08-04T17:36:32;291.43;;;137.60;;
14066;SDS011;7108;42.684;23.350;2022-08-04T17:38:59;266.00;;;137.93;;
14066;SDS011;7108;42.684;23.350;2022-08-04T17:41:27;266.40;;;133.13;;
14066;SDS011;7108;42.684;23.350;2022-08-04T17:43:55;247.60;;;132.03;;
14066;SDS011;7108;42.684;23.350;2022-08-04T17:51:35;264.93;;;130.83;;
14066;SDS011;7108;42.684;23.350;2022-08-04T17:54:16;254.27;;;129.07;;
14066;SDS011;7108;42.684;23.350;2022-08-04T17:56:50;250.60;;;130.83;;
14066;SDS011;7108;42.684;23.350;2022-08-04T17:59:21;261.70;;;134.00;;
14066;SDS011;7108;42.684;23.350;2022-08-04T18:01:55;252.23;;;126.97;;
14066;SDS011;7108;42.684;23.350;2022-08-04T18:06:50;247.77;;;127.50;;
14066;SDS011;7108;42.684;23.350;2022-08-04T18:12:05;251.27;;;129.23;;
14066;SDS011;7108;42.684;23.350;2022-08-04T18:14:40;284.87;;;129.97;;
14066;SDS011;7108;42.684;23.350;2022-08-04T18:17:07;274.40;;;133.37;;
14066;SDS011;7108;42.684;23.350;2022-08-04T18:19:33;270.10;;;131.63;;
14066;SDS011;7108;42.684;23.350;2022-08-04T18:21:59;280.43;;;128.80;;
14066;SDS011;7108;42.684;23.350;2022-08-04T18:24:27;263.30;;;132.63;;
14066;SDS011;7108;42.684;23.350;2022-08-04T18:26:56;281.30;;;132.70;;
14066;SDS011;7108;42.684;23.350;2022-08-04T18:29:22;264.57;;;128.90;;
14066;SDS011;7108;42.684;23.350;2022-08-04T18:31:48;251.83;;;128.93;;
14066;SDS011;7108;42.684;23.350;2022-08-04T18:34:14;263.70;;;133.17;;
14066;SDS011;7108;42.684;23.350;2022-08-04T18:36:39;295.63;;;136.53;;
14066;SDS011;7108;42.684;23.350;2022-08-04T18:39:07;281.17;;;133.03;;
14066;SDS011;7108;42.684;23.350;2022-08-04T18:41:32;284.97;;;131.53;;
14066;SDS011;7108;42.684;23.350;2022-08-04T18:43:58;306.50;;;141.13;;
14066;SDS011;7108;42.684;23.350;2022-08-04T18:46:24;260.37;;;128.93;;
14066;SDS011;7108;42.684;23.350;2022-08-04T18:48:49;268.33;;;132.70;;
14066;SDS011;7108;42.684;23.350;2022-08-04T18:51:15;263.03;;;127.77;;
14066;SDS011;7108;42.684;23.350;2022-08-04T18:53:43;274.33;;;134.03;;
14066;SDS011;7108;42.684;23.350;2022-08-04T18:56:09;284.93;;;135.90;;
14066;SDS011;7108;42.684;23.350;2022-08-04T18:58:35;248.50;;;129.40;;
14066;SDS011;7108;42.684;23.350;2022-08-04T19:01:00;232.33;;;124.23;;
14066;SDS011;7108;42.684;23.350;2022-08-04T19:03:26;221.80;;;123.73;;
14066;SDS011;7108;42.684;23.350;2022-08-04T19:05:52;227.03;;;124.63;;
14066;SDS011;7108;42.684;23.350;2022-08-04T19:08:17;221.27;;;128.80;;